MSC Caracas — DGZN — position and weather

sailwx.info

Track history (hours):
 
Tides and Currents Weather Stations Pressure Air Temp Water Temp Dewpoint Dewpoint Depression Visibility Wind Speed Wind Dir Waves Ship Positions

MSC Caracas

Last reported at 2015-Apr-23 12:00 UTC. Time now 2015-Apr-28 18:15 UTC.
Position N 09°54' W 016°24'.

Length 207.4 m; beam 29.8 m; draft 11.4 m.

Type: Ship (hazmat cat A). MMSI: 211283670.

Wind from 310 at 7 knots

Barometer 1015.0 mb
Air temperature 28.0 ° C
Visibility: greater than 5.4 NM
Dewpoint 22.4 ° C

Date/timePositionNaut miles runAvg speedWind from/ knotsBaromVisibWave heightAir tempDewpointWater temp
2015-Apr-23 12:00N 09°54' W 016°24'10210.7 310 / 71015.0 5.4 28.022.4
2015-Apr-23 02:28N 09°21' W 014°46'1112.0
2015-Apr-23 01:33N 09°21' W 014°35'1212.0
2015-Apr-23 00:34N 09°21' W 014°23'1212.3
2015-Apr-22 23:33N 09°21' W 014°10'1111.4
2015-Apr-22 22:33N 09°21' W 013°59'1110.9
2015-Apr-22 21:31N 09°23' W 013°47'8 8.1
2015-Apr-22 20:34N 09°30' W 013°44'1 0.9
2015-Apr-22 19:32N 09°31' W 013°43'0 0.0
2015-Apr-22 18:32N 09°31' W 013°43'0 0.0
2015-Apr-22 17:32N 09°31' W 013°43'0 0.0
2015-Apr-22 16:32N 09°31' W 013°43'0 0.0
2015-Apr-22 15:32N 09°31' W 013°43'0 0.0
2015-Apr-22 14:32N 09°31' W 013°43'0 0.0
2015-Apr-22 13:32N 09°31' W 013°43'0 0.0
2015-Apr-22 12:32N 09°31' W 013°43'0 0.0
2015-Apr-22 11:32N 09°31' W 013°43'0 0.0
2015-Apr-22 10:32N 09°31' W 013°43'0 0.0
2015-Apr-22 09:33N 09°31' W 013°43'5 5.2
2015-Apr-22 08:33N 09°25' W 013°44'1010.4
2015-Apr-22 07:33N 09°22' W 013°54'1111.3
2015-Apr-22 06:33N 09°21' W 014°05'1111.4
2015-Apr-22 05:33N 09°21' W 014°17'1111.0
2015-Apr-22 04:33N 09°21' W 014°28'1110.7
2015-Apr-22 03:33N 09°21' W 014°39'1010.3
2015-Apr-22 02:33N 09°21' W 014°49'1110.7
2015-Apr-22 01:32N 09°20' W 015°00'7 7.3
2015-Apr-22 00:33N 09°21' W 015°08'1 0.9
2015-Apr-21 23:33N 09°21' W 015°08'1 0.9
2015-Apr-21 22:33N 09°21' W 015°09'1 1.1
2015-Apr-21 21:33N 09°20' W 015°10'2 1.6
2015-Apr-21 20:33N 09°19' W 015°11'3 1.2
2015-Apr-21 18:13N 09°17' W 015°13'1 0.5
2015-Apr-21 16:33N 09°17' W 015°13'0 0.4
2015-Apr-21 15:33N 09°17' W 015°14'1 1.0
2015-Apr-21 14:33N 09°18' W 015°14'1 1.5
2015-Apr-21 13:33N 09°19' W 015°13'6 5.6
2015-Apr-21 12:33N 09°21' W 015°19'1410.6
2015-Apr-21 11:13N 09°21' W 015°33'710.6
2015-Apr-21 10:33N 09°21' W 015°40'1410.7
2015-Apr-21 09:16N 09°21' W 015°54'19 9.9
2015-Apr-21 07:22N 09°34' W 016°08'911.3
2015-Apr-21 06:33N 09°41' W 016°14'3411.3
2015-Apr-21 03:33N 10°06' W 016°38'1111.3
2015-Apr-21 02:33N 10°14' W 016°45'1111.0
2015-Apr-21 01:32N 10°23' W 016°53'1111.0
2015-Apr-21 00:32N 10°31' W 017°01'1111.1
2015-Apr-20 23:33N 10°39' W 017°08'1111.3
2015-Apr-20 22:33N 10°47' W 017°16'50010.7
2015-Apr-19 00:00N 19°06' W 017°42'   360 / 121016.0 5.4 18.014.8
2015-Apr-14 22:12N 36°00' W 005°27'711.7
2015-Apr-14 21:33N 36°08' W 005°24'2 1.0
2015-Apr-14 19:33N 36°08' W 005°26'0 0.0
2015-Apr-14 18:20N 36°08' W 005°26'0 0.0
2015-Apr-14 17:33N 36°08' W 005°26'0 0.0
2015-Apr-14 16:33N 36°08' W 005°26'0 0.0
2015-Apr-14 15:33N 36°08' W 005°26'0 0.0
2015-Apr-14 14:34N 36°08' W 005°26'0 0.0
2015-Apr-14 13:28N 36°08' W 005°26'0 0.0
2015-Apr-14 12:32N 36°08' W 005°26'0 0.0
2015-Apr-14 11:32N 36°08' W 005°26'0 0.0
2015-Apr-14 10:33N 36°08' W 005°26'0 0.0
2015-Apr-14 09:33N 36°08' W 005°26'0 0.0
2015-Apr-14 08:33N 36°08' W 005°26'0 0.0
2015-Apr-14 07:32N 36°08' W 005°26'0 0.0
2015-Apr-14 06:33N 36°08' W 005°26'0 0.0
2015-Apr-14 05:33N 36°08' W 005°26'3 2.9
2015-Apr-14 04:33N 36°06' W 005°23'5 5.0
2015-Apr-14 03:33N 36°04' W 005°18'0 0.1
2015-Apr-14 02:33N 36°04' W 005°18'1 0.8
2015-Apr-14 01:33N 36°04' W 005°17'6 5.8
2015-Apr-14 00:33N 36°08' W 005°12'3 1.4
2015-Apr-13 22:17N 36°10' W 005°09'  
Track history (hours):
 
Tides and Currents Weather Stations Pressure Air Temp Water Temp Dewpoint Dewpoint Depression Visibility Wind Speed Wind Dir Waves Ship Positions

MSC Caracas

Last reported at 2015-Apr-23 12:00 UTC. Time now 2015-Apr-28 18:15 UTC.
Position N 09°54' W 016°24'.

Length 207.4 m; beam 29.8 m; draft 11.4 m.

Type: Ship (hazmat cat A). MMSI: 211283670.

Wind from 310 at 7 knots

Barometer 1015.0 mb
Air temperature 28.0 ° C
Visibility: greater than 5.4 NM
Dewpoint 22.4 ° C

Date/timePositionNaut miles runAvg speedWind from/ knotsBaromVisibWave heightAir tempDewpointWater temp
2015-Apr-23 12:00N 09°54' W 016°24'10210.7 310 / 71015.0 5.4 28.022.4
2015-Apr-23 02:28N 09°21' W 014°46'1112.0
2015-Apr-23 01:33N 09°21' W 014°35'1212.0
2015-Apr-23 00:34N 09°21' W 014°23'1212.3
2015-Apr-22 23:33N 09°21' W 014°10'1111.4
2015-Apr-22 22:33N 09°21' W 013°59'1110.9
2015-Apr-22 21:31N 09°23' W 013°47'8 8.1
2015-Apr-22 20:34N 09°30' W 013°44'1 0.9
2015-Apr-22 19:32N 09°31' W 013°43'0 0.0
2015-Apr-22 18:32N 09°31' W 013°43'0 0.0
2015-Apr-22 17:32N 09°31' W 013°43'0 0.0
2015-Apr-22 16:32N 09°31' W 013°43'0 0.0
2015-Apr-22 15:32N 09°31' W 013°43'0 0.0
2015-Apr-22 14:32N 09°31' W 013°43'0 0.0
2015-Apr-22 13:32N 09°31' W 013°43'0 0.0
2015-Apr-22 12:32N 09°31' W 013°43'0 0.0
2015-Apr-22 11:32N 09°31' W 013°43'0 0.0
2015-Apr-22 10:32N 09°31' W 013°43'0 0.0
2015-Apr-22 09:33N 09°31' W 013°43'5 5.2
2015-Apr-22 08:33N 09°25' W 013°44'1010.4
2015-Apr-22 07:33N 09°22' W 013°54'1111.3
2015-Apr-22 06:33N 09°21' W 014°05'1111.4
2015-Apr-22 05:33N 09°21' W 014°17'1111.0
2015-Apr-22 04:33N 09°21' W 014°28'1110.7
2015-Apr-22 03:33N 09°21' W 014°39'1010.3
2015-Apr-22 02:33N 09°21' W 014°49'1110.7
2015-Apr-22 01:32N 09°20' W 015°00'7 7.3
2015-Apr-22 00:33N 09°21' W 015°08'1 0.9
2015-Apr-21 23:33N 09°21' W 015°08'1 0.9
2015-Apr-21 22:33N 09°21' W 015°09'1 1.1
2015-Apr-21 21:33N 09°20' W 015°10'2 1.6
2015-Apr-21 20:33N 09°19' W 015°11'3 1.2
2015-Apr-21 18:13N 09°17' W 015°13'1 0.5
2015-Apr-21 16:33N 09°17' W 015°13'0 0.4
2015-Apr-21 15:33N 09°17' W 015°14'1 1.0
2015-Apr-21 14:33N 09°18' W 015°14'1 1.5
2015-Apr-21 13:33N 09°19' W 015°13'6 5.6
2015-Apr-21 12:33N 09°21' W 015°19'1410.6
2015-Apr-21 11:13N 09°21' W 015°33'710.6
2015-Apr-21 10:33N 09°21' W 015°40'1410.7
2015-Apr-21 09:16N 09°21' W 015°54'19 9.9
2015-Apr-21 07:22N 09°34' W 016°08'911.3
2015-Apr-21 06:33N 09°41' W 016°14'3411.3
2015-Apr-21 03:33N 10°06' W 016°38'1111.3
2015-Apr-21 02:33N 10°14' W 016°45'1111.0
2015-Apr-21 01:32N 10°23' W 016°53'1111.0
2015-Apr-21 00:32N 10°31' W 017°01'1111.1
2015-Apr-20 23:33N 10°39' W 017°08'1111.3
2015-Apr-20 22:33N 10°47' W 017°16'50010.7
2015-Apr-19 00:00N 19°06' W 017°42'   360 / 121016.0 5.4 18.014.8
2015-Apr-14 22:12N 36°00' W 005°27'711.7
2015-Apr-14 21:33N 36°08' W 005°24'2 1.0
2015-Apr-14 19:33N 36°08' W 005°26'0 0.0
2015-Apr-14 18:20N 36°08' W 005°26'0 0.0
2015-Apr-14 17:33N 36°08' W 005°26'0 0.0
2015-Apr-14 16:33N 36°08' W 005°26'0 0.0
2015-Apr-14 15:33N 36°08' W 005°26'0 0.0
2015-Apr-14 14:34N 36°08' W 005°26'0 0.0
2015-Apr-14 13:28N 36°08' W 005°26'0 0.0
2015-Apr-14 12:32N 36°08' W 005°26'0 0.0
2015-Apr-14 11:32N 36°08' W 005°26'0 0.0
2015-Apr-14 10:33N 36°08' W 005°26'0 0.0
2015-Apr-14 09:33N 36°08' W 005°26'0 0.0
2015-Apr-14 08:33N 36°08' W 005°26'0 0.0
2015-Apr-14 07:32N 36°08' W 005°26'0 0.0
2015-Apr-14 06:33N 36°08' W 005°26'0 0.0
2015-Apr-14 05:33N 36°08' W 005°26'3 2.9
2015-Apr-14 04:33N 36°06' W 005°23'5 5.0
2015-Apr-14 03:33N 36°04' W 005°18'0 0.1
2015-Apr-14 02:33N 36°04' W 005°18'1 0.8
2015-Apr-14 01:33N 36°04' W 005°17'6 5.8
2015-Apr-14 00:33N 36°08' W 005°12'3 1.4
2015-Apr-13 22:17N 36°10' W 005°09'  

Dump ship's entire track history